Hlavní strana
METAR-TAF:

METAR-TAF

Letiště :

Záporoží, Ukrajina

zeměpisná šířka: 47-52-02N, zeměpisná délka: 035-18-59E, výška: 114 m

Aktuální stav počasí

Zpráva byla vytvořena před 20 minutami, v 04:00 UTC
Východoseverovýchodní vítr 8 kt, proměnlivý mezi severoseverovýchodním a východním
Teplota 1°C
Vlhkost vzduchu 93%
Tlak 1026 hPa
Viditelnost: 8000 m

METAR: UKDE 180400Z 06004MPS 030V090 8000 NSC 01/00 Q1026 R02R/090070 NOSIG

Čas: 06:20 (04:20 UTC)

Předpověď počasí

Zpráva byla vytvořena před 2 hodinami a 11 minutami, v 02:09 UTC
Předpověď platná od 18 v 03 UTC do 18 v 12 UTC
Východoseverovýchodní vítr 8 kt
Viditelnost: 3100 m
Oblačno až skoro zataženo ve výšce 1000 ft
kouřmo
Dočasný
od 18 v 03 UTC do 18 v 08 UTC
Viditelnost: 0300 m
ve výšce 100 ft
mlha

TAF: UKDE 180209Z 1803/1812 06004MPS 3100 BR BKN010 TX06/1812Z TN00/1803Z TEMPO 1803/1808 0300 FG VV001

Stav a předpovědi počasí z více než 4 000 letišť (zprávy METAR a TAF).

Červené a žluté tečky na mapě představují dostupné meteorologické stanice.

Když kurzor umístíte na tečku, zobrazí se název stanice.

Pak kliknutím zobrazíte stav a předpověď počasí.

Chcete-li změnit mapu, kliknutím na zelené tlačítko se znaménkem +mapu přiblížíte, kliknutím na zelené tlačítko se znaménkem – mapu oddálíte a kliknutím na zelené šipky přejdete na sousední mapy.


METAR-TAF: